EW9530 Castellbell I El Vilar ES current weather conditions

sailwx.info

Wind from 049 at 4 knots gusting 11

Air temperature 7.8° C
Dewpoint 5.2° C

Last reported at 2020-Apr-06 07:31 UTC.
Time now 2020-Apr-07 16:20 UTC

Location: N 41°38' E 001°51'.
View on Google Maps.

See reports from other nearby stations

  
Tides and Currents Weather Stations Pressure Air Temp Water Temp Dewpoint Dewpoint Depression Visibility Wind Speed Wind Dir Waves Ship Positions
date/time (UTC)wind fromknots sea level pressurealtimeterstation pressurevisibilityair tempwater tempwave heightnotes
2020-Apr-06 07:31 049 4 gusting 11 7.8
2020-Apr-06 07:01 049 2 gusting 5 6.1
2020-Apr-06 06:31 056 1 gusting 3 5.0
2020-Apr-06 06:00 055 4.4
2020-Apr-06 05:30 084 6 gusting 8 4.4
2020-Apr-06 05:00 074 6 gusting 9 4.4
2020-Apr-06 04:45 005 5.0
2020-Apr-06 04:32 005 5.0
2020-Apr-06 04:01 036 1 gusting 7 5.0
2020-Apr-06 03:31 066 2 gusting 6 5.0
2020-Apr-06 03:01 027 0 gusting 6 5.6
2020-Apr-06 02:30 061 1 gusting 4 6.1
2020-Apr-06 02:00 046 6.7
2020-Apr-06 01:31 046 0 gusting 3 6.7
2020-Apr-06 01:00 063 2 gusting 5 6.1
2020-Apr-06 00:30 066 2 gusting 3 6.1
2020-Apr-06 00:00 063 3 gusting 7 6.1
2020-Apr-05 23:31 036 0 gusting 3 5.6
2020-Apr-05 23:00 031 6.1
2020-Apr-05 22:31 028 6.7
2020-Apr-05 22:02 055 1 gusting 6 6.7
2020-Apr-05 21:31 061 3 gusting 6 7.2
2020-Apr-05 21:00 067 3 gusting 7 8.3
2020-Apr-05 20:30 066 4 gusting 7 8.3
2020-Apr-05 20:01 037 10.0
2020-Apr-05 19:31 297 11.7
2020-Apr-05 19:01 273 0 gusting 6 12.8
2020-Apr-05 18:30 103 2 gusting 9 13.9
2020-Apr-05 18:02 147 8 gusting 16 14.4
2020-Apr-05 17:45 162 9 gusting 18 15.0
2020-Apr-05 17:00 194 7 gusting 20 17.2
2020-Apr-05 16:30 154 11 gusting 25 17.8
2020-Apr-05 16:00 169 11 gusting 24 17.8